createdAt,value
2023-12-09T00:00:24.701Z,12.72
2023-12-09T00:02:51.403Z,12.78
2023-12-09T00:05:17.982Z,12.77
2023-12-09T00:07:44.584Z,12.78
2023-12-09T00:10:11.214Z,12.72
2023-12-09T00:12:37.834Z,12.79
2023-12-09T00:15:04.879Z,12.81
2023-12-09T00:17:31.520Z,12.82
2023-12-09T00:19:58.151Z,12.83
2023-12-09T00:22:25.074Z,12.83
2023-12-09T00:24:51.839Z,12.83
2023-12-09T00:27:18.470Z,12.79
2023-12-09T00:29:45.094Z,12.80
2023-12-09T00:32:11.931Z,12.78
2023-12-09T00:34:38.501Z,12.78
2023-12-09T00:37:05.123Z,12.77
2023-12-09T00:39:31.779Z,12.78
2023-12-09T00:41:58.425Z,12.73
2023-12-09T00:44:24.986Z,12.76
2023-12-09T00:46:51.574Z,12.72
2023-12-09T00:49:18.363Z,12.62
2023-12-09T00:51:45.041Z,12.78
2023-12-09T00:54:11.665Z,12.79
2023-12-09T00:56:38.292Z,12.80
2023-12-09T00:59:04.957Z,12.76
2023-12-09T01:01:31.742Z,12.83
2023-12-09T01:03:58.621Z,12.79
2023-12-09T01:06:25.586Z,12.86
2023-12-09T01:08:52.286Z,12.85
2023-12-09T01:11:18.931Z,12.80
2023-12-09T01:13:45.529Z,12.84
2023-12-09T01:16:12.299Z,12.85
2023-12-09T01:18:39.177Z,12.84
2023-12-09T01:21:06.222Z,12.87
2023-12-09T01:23:32.866Z,12.88
2023-12-09T01:25:59.462Z,12.87
2023-12-09T01:28:26.035Z,12.90
2023-12-09T01:30:52.617Z,12.91
2023-12-09T01:33:19.354Z,12.86
2023-12-09T01:35:46.027Z,12.91
2023-12-09T01:38:12.617Z,12.91
2023-12-09T01:40:39.166Z,12.95
2023-12-09T01:43:09.627Z,12.94
2023-12-09T01:45:36.264Z,12.94
2023-12-09T01:48:04.699Z,12.98
2023-12-09T01:50:31.660Z,13.01
2023-12-09T01:52:59.229Z,13.02
2023-12-09T01:55:26.040Z,13.04
2023-12-09T01:57:53.959Z,13.09
2023-12-09T02:00:22.295Z,13.08
2023-12-09T02:02:49.469Z,13.09
2023-12-09T02:05:16.392Z,13.10
2023-12-09T02:07:43.083Z,13.13
2023-12-09T02:10:09.905Z,13.10
2023-12-09T02:12:46.968Z,13.18
2023-12-09T02:15:25.361Z,13.20
2023-12-09T02:17:58.464Z,13.15
2023-12-09T02:20:25.819Z,13.25
2023-12-09T02:23:08.472Z,13.25
2023-12-09T02:25:36.690Z,13.29
2023-12-09T02:28:13.339Z,13.33
2023-12-09T02:30:50.349Z,13.35
2023-12-09T02:33:18.965Z,13.39
2023-12-09T02:35:48.638Z,13.39
2023-12-09T02:38:17.286Z,13.44
2023-12-09T02:40:44.767Z,13.47
2023-12-09T02:43:11.552Z,13.50
2023-12-09T02:45:38.424Z,13.53
2023-12-09T02:48:05.530Z,13.61
2023-12-09T02:50:32.283Z,13.66
2023-12-09T02:52:58.984Z,13.67
2023-12-09T02:55:25.534Z,13.71
2023-12-09T02:57:52.124Z,13.78
2023-12-09T03:00:18.868Z,13.91
2023-12-09T03:02:45.537Z,13.95
2023-12-09T03:05:12.296Z,13.98
2023-12-09T03:07:38.927Z,14.03
2023-12-09T03:10:05.800Z,14.14
2023-12-09T03:12:32.494Z,14.17
2023-12-09T03:14:59.153Z,14.28
2023-12-09T03:17:25.853Z,14.31
2023-12-09T03:19:52.554Z,14.35
2023-12-09T03:22:19.345Z,14.40
2023-12-09T03:24:45.939Z,14.44
2023-12-09T03:27:12.554Z,14.49
2023-12-09T03:29:39.130Z,14.60
2023-12-09T03:32:05.909Z,14.65
2023-12-09T03:34:32.646Z,14.62
2023-12-09T03:36:59.453Z,14.74
2023-12-09T03:39:26.155Z,14.78
2023-12-09T03:41:52.873Z,14.79
2023-12-09T03:44:19.523Z,14.88
2023-12-09T03:46:46.168Z,14.93
2023-12-09T03:49:13.010Z,14.83
2023-12-09T03:51:39.815Z,15.00
2023-12-09T03:54:06.500Z,15.04
2023-12-09T03:56:33.289Z,15.07
2023-12-09T03:59:00.003Z,15.02
2023-12-09T04:01:26.700Z,15.11
2023-12-09T04:03:53.460Z,15.09
2023-12-09T04:06:20.148Z,15.14
2023-12-09T04:08:46.867Z,15.12
2023-12-09T04:11:13.421Z,15.10
2023-12-09T04:13:41.543Z,15.13
2023-12-09T04:16:08.589Z,15.15
2023-12-09T04:18:35.476Z,15.20
2023-12-09T04:21:02.191Z,15.13
2023-12-09T04:23:28.851Z,15.23
2023-12-09T04:25:55.488Z,15.21
2023-12-09T04:28:22.100Z,15.15
2023-12-09T04:30:48.732Z,15.28
2023-12-09T04:33:15.398Z,15.27
2023-12-09T04:35:42.070Z,15.30
2023-12-09T04:38:08.652Z,15.24
2023-12-09T04:40:35.277Z,15.27
2023-12-09T04:43:01.872Z,15.15
2023-12-09T04:45:28.504Z,15.28
2023-12-09T04:47:55.418Z,15.24
2023-12-09T04:50:22.177Z,15.30
2023-12-09T04:52:48.773Z,15.21
2023-12-09T04:55:15.564Z,15.23
2023-12-09T04:57:42.250Z,15.32
2023-12-09T05:00:09.400Z,15.35
2023-12-09T05:02:36.035Z,15.28
2023-12-09T05:05:02.645Z,15.33
2023-12-09T05:07:29.321Z,15.28
2023-12-09T05:09:56.101Z,15.28
2023-12-09T05:12:22.872Z,15.35
2023-12-09T05:14:49.565Z,15.35
2023-12-09T05:17:16.856Z,15.37
2023-12-09T05:19:43.503Z,15.26
2023-12-09T05:22:10.194Z,15.36
2023-12-09T05:24:36.822Z,15.34
2023-12-09T05:27:03.644Z,15.39
2023-12-09T05:29:30.302Z,15.31
2023-12-09T05:31:56.966Z,15.38
2023-12-09T05:34:23.671Z,15.37
2023-12-09T05:36:50.307Z,15.32
2023-12-09T05:39:16.933Z,15.34
2023-12-09T05:41:43.616Z,15.41
2023-12-09T05:44:10.221Z,15.41
2023-12-09T05:46:36.890Z,15.41
2023-12-09T05:49:04.250Z,15.31
2023-12-09T05:51:31.185Z,15.28
2023-12-09T05:53:57.959Z,15.30
2023-12-09T05:56:24.676Z,15.29
2023-12-09T05:58:51.247Z,15.38
2023-12-09T06:01:17.934Z,15.39
2023-12-09T06:03:44.657Z,15.41
2023-12-09T06:06:11.620Z,15.36
2023-12-09T06:08:38.321Z,15.42
2023-12-09T06:11:05.046Z,15.29
2023-12-09T06:13:32.403Z,15.36
2023-12-09T06:15:59.078Z,15.31
2023-12-09T06:18:26.367Z,15.37
2023-12-09T06:20:52.953Z,15.36
2023-12-09T06:23:19.552Z,15.39
2023-12-09T06:25:46.214Z,15.33
2023-12-09T06:28:12.897Z,15.29
2023-12-09T06:30:39.571Z,15.40
2023-12-09T06:33:06.484Z,15.31
2023-12-09T06:35:33.202Z,15.37
2023-12-09T06:37:59.816Z,15.32
2023-12-09T06:40:26.364Z,15.30
2023-12-09T06:42:52.975Z,15.35
2023-12-09T06:45:19.756Z,15.40
2023-12-09T06:47:46.518Z,15.38
2023-12-09T06:50:13.168Z,15.38
2023-12-09T06:52:39.910Z,15.35
2023-12-09T06:55:06.914Z,15.39
2023-12-09T06:57:33.588Z,15.29
2023-12-09T07:00:00.242Z,15.35
2023-12-09T07:02:33.923Z,15.38
2023-12-09T07:05:07.152Z,15.25
2023-12-09T07:07:33.840Z,15.28
2023-12-09T07:10:00.480Z,15.23
2023-12-09T07:12:27.223Z,15.34
2023-12-09T07:14:54.005Z,15.24
2023-12-09T07:17:20.609Z,15.22
2023-12-09T07:19:47.372Z,15.26
2023-12-09T07:22:14.099Z,15.33
2023-12-09T07:24:40.898Z,15.25
2023-12-09T07:27:07.677Z,15.33
2023-12-09T07:29:34.247Z,15.33
2023-12-09T07:32:01.037Z,15.32
2023-12-09T07:34:28.060Z,15.33
2023-12-09T07:36:54.728Z,15.32
2023-12-09T07:39:21.405Z,15.28
2023-12-09T07:41:47.992Z,15.30
2023-12-09T07:44:14.606Z,15.17
2023-12-09T07:46:41.186Z,15.16
2023-12-09T07:49:07.899Z,15.17
2023-12-09T07:51:34.776Z,15.14
2023-12-09T07:54:01.565Z,15.24
2023-12-09T07:56:28.202Z,15.27
2023-12-09T07:58:54.816Z,15.18
2023-12-09T08:01:21.463Z,15.23
2023-12-09T08:03:48.161Z,15.17
2023-12-09T08:06:14.932Z,15.15
2023-12-09T08:08:41.704Z,15.25
2023-12-09T08:11:08.372Z,15.26
2023-12-09T08:13:35.039Z,15.19
2023-12-09T08:16:01.628Z,15.24
2023-12-09T08:18:28.490Z,15.23
2023-12-09T08:20:55.211Z,15.12
2023-12-09T08:23:21.826Z,15.08
2023-12-09T08:25:48.573Z,15.14
2023-12-09T08:28:15.210Z,15.09
2023-12-09T08:30:41.873Z,15.20
2023-12-09T08:33:08.682Z,15.05
2023-12-09T08:35:36.120Z,15.12
2023-12-09T08:38:03.409Z,15.18
2023-12-09T08:40:30.039Z,15.09
2023-12-09T08:42:56.680Z,15.17
2023-12-09T08:45:23.362Z,15.11
2023-12-09T08:47:50.093Z,15.11
2023-12-09T08:52:46.325Z,15.07
2023-12-09T08:55:12.972Z,15.06
2023-12-09T08:57:39.688Z,15.17
2023-12-09T09:00:06.892Z,15.06
2023-12-09T09:02:33.470Z,15.15
2023-12-09T09:05:00.173Z,15.05
2023-12-09T09:07:26.877Z,15.08
2023-12-09T09:09:53.525Z,15.08
2023-12-09T09:12:20.284Z,15.03
2023-12-09T09:14:47.060Z,15.09
2023-12-09T09:17:13.711Z,15.11
2023-12-09T09:19:40.339Z,15.12
2023-12-09T09:22:06.943Z,15.05
2023-12-09T09:24:33.649Z,15.10
2023-12-09T09:27:00.338Z,15.07
2023-12-09T09:29:26.982Z,15.04
2023-12-09T09:31:53.659Z,15.15
2023-12-09T09:34:20.542Z,15.13
2023-12-09T09:36:47.280Z,15.14
2023-12-09T09:39:14.062Z,15.11
2023-12-09T09:42:03.446Z,15.13
2023-12-09T09:44:31.971Z,15.04
2023-12-09T09:46:58.673Z,15.02
2023-12-09T09:49:25.916Z,15.05
2023-12-09T09:51:57.468Z,15.03
2023-12-09T09:54:32.084Z,15.02
2023-12-09T09:56:59.351Z,15.12
2023-12-09T09:59:27.009Z,15.12
2023-12-09T10:01:53.744Z,15.10
2023-12-09T10:04:20.400Z,15.14
2023-12-09T10:06:48.758Z,15.15
2023-12-09T10:09:15.648Z,15.04
2023-12-09T10:11:42.273Z,15.19
2023-12-09T10:14:09.067Z,15.09
2023-12-09T10:16:36.539Z,15.21
2023-12-09T10:19:03.382Z,15.12
2023-12-09T10:21:30.298Z,15.25
2023-12-09T10:23:57.106Z,15.15
2023-12-09T10:26:23.795Z,15.28
2023-12-09T10:28:51.040Z,15.23
2023-12-09T10:31:17.861Z,15.25
2023-12-09T10:33:45.296Z,15.18
2023-12-09T10:36:12.136Z,15.17
2023-12-09T10:38:43.097Z,15.14
2023-12-09T10:41:12.963Z,15.24
2023-12-09T10:43:41.231Z,15.15
2023-12-09T10:46:09.331Z,15.14
2023-12-09T10:48:36.095Z,15.16
2023-12-09T10:51:02.985Z,15.23
2023-12-09T10:53:29.630Z,15.11
2023-12-09T10:55:56.652Z,15.28
2023-12-09T10:58:24.795Z,15.27
2023-12-09T11:00:52.264Z,15.24
2023-12-09T11:03:19.307Z,15.22
2023-12-09T11:05:49.958Z,15.30
2023-12-09T11:08:17.088Z,15.27
2023-12-09T11:10:45.551Z,15.23
2023-12-09T11:13:13.132Z,15.20
2023-12-09T11:15:39.842Z,15.20
2023-12-09T11:18:11.344Z,15.36
2023-12-09T11:20:39.929Z,15.36
2023-12-09T11:23:09.490Z,15.31
2023-12-09T11:25:39.486Z,15.28
2023-12-09T11:28:06.196Z,15.26
2023-12-09T11:30:38.349Z,15.20
2023-12-09T11:33:06.014Z,15.26
2023-12-09T11:35:36.941Z,15.26
2023-12-09T11:38:05.900Z,15.27
2023-12-09T11:40:33.741Z,15.23
2023-12-09T11:43:02.145Z,15.23
2023-12-09T11:45:28.969Z,15.11
2023-12-09T11:47:58.049Z,15.14
2023-12-09T11:50:25.382Z,15.10
2023-12-09T11:52:52.319Z,14.99
2023-12-09T11:55:21.991Z,14.98
2023-12-09T11:57:48.752Z,14.90
2023-12-09T12:00:15.648Z,14.68
2023-12-09T12:02:42.596Z,14.60
2023-12-09T12:05:10.481Z,14.61
2023-12-09T12:07:37.372Z,14.61
2023-12-09T12:10:08.903Z,14.62
2023-12-09T12:12:39.100Z,14.67
2023-12-09T12:15:06.227Z,14.61
2023-12-09T12:17:40.562Z,14.68
2023-12-09T12:20:09.410Z,14.72
2023-12-09T12:22:35.971Z,14.73
2023-12-09T12:25:02.628Z,14.74
2023-12-09T12:27:34.166Z,14.70
2023-12-09T12:30:00.943Z,14.65
2023-12-09T12:32:28.031Z,14.66
2023-12-09T12:34:55.070Z,14.55
2023-12-09T12:37:21.853Z,14.57
2023-12-09T12:39:48.774Z,14.59
2023-12-09T12:42:15.556Z,14.61
2023-12-09T12:44:42.644Z,14.68
2023-12-09T12:47:09.373Z,14.55
2023-12-09T12:49:36.022Z,14.48
2023-12-09T12:52:02.756Z,14.50
2023-12-09T12:54:29.491Z,14.28
2023-12-09T12:56:56.165Z,14.21
2023-12-09T12:59:22.821Z,14.12
2023-12-09T13:01:49.465Z,14.15
2023-12-09T13:04:17.583Z,14.16
2023-12-09T13:06:44.540Z,14.09
2023-12-09T13:09:11.610Z,14.20
2023-12-09T13:11:38.284Z,14.28
2023-12-09T13:14:06.130Z,14.31
2023-12-09T13:16:32.852Z,14.38
2023-12-09T13:18:59.658Z,14.29
2023-12-09T13:21:26.392Z,14.28
2023-12-09T13:23:53.339Z,14.28
2023-12-09T13:26:20.112Z,14.30
2023-12-09T13:28:46.858Z,14.28
2023-12-09T13:31:13.560Z,14.19
2023-12-09T13:33:40.335Z,14.24
2023-12-09T13:36:07.807Z,14.24
2023-12-09T13:38:34.568Z,14.12
2023-12-09T13:41:01.174Z,14.03
2023-12-09T13:43:27.833Z,13.97
2023-12-09T13:45:54.542Z,13.88
2023-12-09T13:48:21.312Z,13.84
2023-12-09T13:50:48.538Z,13.76
2023-12-09T13:53:15.410Z,13.76
2023-12-09T13:55:42.041Z,13.77
2023-12-09T13:58:08.647Z,13.74
2023-12-09T14:00:35.596Z,13.83
2023-12-09T14:03:02.795Z,13.81
2023-12-09T14:05:29.646Z,13.92
2023-12-09T14:07:56.436Z,13.93
2023-12-09T14:10:23.218Z,14.01
2023-12-09T14:12:50.148Z,13.90
2023-12-09T14:15:17.110Z,13.97
2023-12-09T14:17:44.022Z,13.93
2023-12-09T14:20:11.745Z,13.99
2023-12-09T14:22:38.932Z,13.92
2023-12-09T14:25:06.097Z,13.90
2023-12-09T14:27:32.859Z,13.90
2023-12-09T14:29:59.633Z,13.92
2023-12-09T14:32:26.575Z,13.95
2023-12-09T14:34:53.599Z,13.88
2023-12-09T14:37:20.465Z,13.78
2023-12-09T14:39:47.230Z,13.81
2023-12-09T14:42:13.897Z,13.90
2023-12-09T14:44:40.598Z,13.85
2023-12-09T14:47:07.293Z,13.89
2023-12-09T14:49:34.050Z,13.92
2023-12-09T14:52:00.809Z,13.86
2023-12-09T14:54:27.504Z,13.89
2023-12-09T14:56:54.297Z,13.92
2023-12-09T14:59:21.166Z,13.87
2023-12-09T15:01:47.891Z,13.80
2023-12-09T15:04:14.571Z,13.88
2023-12-09T15:06:41.395Z,13.82
2023-12-09T15:09:08.148Z,13.78
2023-12-09T15:11:34.814Z,13.81
2023-12-09T15:14:01.470Z,13.81
2023-12-09T15:16:28.542Z,13.80
2023-12-09T15:18:55.604Z,13.74
2023-12-09T15:21:22.306Z,13.77
2023-12-09T15:23:49.265Z,13.71
2023-12-09T15:26:15.960Z,13.80
2023-12-09T15:28:42.601Z,13.81
2023-12-09T15:31:09.293Z,13.77
2023-12-09T15:33:36.449Z,13.82
2023-12-09T15:36:03.833Z,13.78
2023-12-09T15:38:30.797Z,13.68
2023-12-09T15:40:57.457Z,13.70
2023-12-09T15:43:24.126Z,13.74
2023-12-09T15:45:52.124Z,13.73
2023-12-09T15:48:20.020Z,13.66
2023-12-09T15:50:46.871Z,13.71
2023-12-09T15:53:13.483Z,13.69
2023-12-09T15:55:40.152Z,13.64
2023-12-09T15:58:06.972Z,13.61
2023-12-09T16:00:33.784Z,13.55
2023-12-09T16:03:00.966Z,13.63
2023-12-09T16:05:27.689Z,13.57
2023-12-09T16:07:54.405Z,13.52
2023-12-09T16:10:21.095Z,13.52
2023-12-09T16:12:47.882Z,13.56
2023-12-09T16:15:15.181Z,13.53
2023-12-09T16:17:42.174Z,13.50
2023-12-09T16:20:09.721Z,13.48
2023-12-09T16:22:36.466Z,13.52
2023-12-09T16:25:03.175Z,13.50
2023-12-09T16:27:29.919Z,13.45
2023-12-09T16:29:56.631Z,13.45
2023-12-09T16:32:23.275Z,13.33
2023-12-09T16:34:50.149Z,13.34
2023-12-09T16:37:16.815Z,13.27
2023-12-09T16:39:43.531Z,13.19
2023-12-09T16:42:10.227Z,13.16
2023-12-09T16:44:37.005Z,13.14
2023-12-09T16:47:03.950Z,13.09
2023-12-09T16:49:30.807Z,13.07
2023-12-09T16:51:57.863Z,13.01
2023-12-09T16:54:24.635Z,12.99
2023-12-09T16:56:51.325Z,12.97
2023-12-09T16:59:18.257Z,12.90
2023-12-09T17:01:44.974Z,12.98
2023-12-09T17:04:11.770Z,12.93
2023-12-09T17:06:38.531Z,12.83
2023-12-09T17:09:05.410Z,12.76
2023-12-09T17:11:32.036Z,12.76
2023-12-09T17:13:58.708Z,12.72
2023-12-09T17:16:25.432Z,12.72
2023-12-09T17:18:52.199Z,12.69
2023-12-09T17:21:18.924Z,12.69
2023-12-09T17:23:45.653Z,12.58
2023-12-09T17:26:12.383Z,12.48
2023-12-09T17:28:39.056Z,12.49
2023-12-09T17:31:05.733Z,12.49
2023-12-09T17:33:32.687Z,12.52
2023-12-09T17:35:59.460Z,12.54
2023-12-09T17:38:26.173Z,12.42
2023-12-09T17:40:52.788Z,12.47
2023-12-09T17:43:19.385Z,12.44
2023-12-09T17:45:46.091Z,12.44
2023-12-09T17:48:12.871Z,12.47
2023-12-09T17:50:39.585Z,12.36
2023-12-09T17:53:06.298Z,12.45
2023-12-09T17:55:32.992Z,12.42
2023-12-09T17:57:59.619Z,12.42
2023-12-09T18:00:26.373Z,12.39
2023-12-09T18:02:53.060Z,12.46
2023-12-09T18:05:19.733Z,12.40
2023-12-09T18:07:46.413Z,12.41
2023-12-09T18:10:15.043Z,12.46
2023-12-09T18:12:43.022Z,12.39
2023-12-09T18:15:09.952Z,12.47
2023-12-09T18:17:36.850Z,12.45
2023-12-09T18:20:04.103Z,12.48
2023-12-09T18:22:30.982Z,12.42
2023-12-09T18:24:57.755Z,12.50
2023-12-09T18:27:24.462Z,12.51
2023-12-09T18:29:51.113Z,12.57
2023-12-09T18:32:17.766Z,12.62
2023-12-09T18:34:44.786Z,12.62
2023-12-09T18:37:14.878Z,12.62
2023-12-09T18:39:41.489Z,12.60
2023-12-09T18:42:08.218Z,12.63
2023-12-09T18:44:34.941Z,12.66
2023-12-09T18:47:01.631Z,12.63
2023-12-09T18:49:28.362Z,12.64
2023-12-09T18:51:55.208Z,12.64
2023-12-09T18:54:21.831Z,12.63
2023-12-09T18:56:48.527Z,12.72
2023-12-09T18:59:17.602Z,12.72
2023-12-09T19:01:44.715Z,12.66
2023-12-09T19:04:11.763Z,12.64
2023-12-09T19:06:45.879Z,12.70
2023-12-09T19:09:20.586Z,12.67
2023-12-09T19:11:47.515Z,12.67
2023-12-09T19:14:14.451Z,12.66
2023-12-09T19:16:41.428Z,12.67
2023-12-09T19:19:08.279Z,12.71
2023-12-09T19:21:35.053Z,12.74
2023-12-09T19:24:01.663Z,12.72
2023-12-09T19:26:28.391Z,12.76
2023-12-09T19:28:55.145Z,12.72
2023-12-09T19:31:21.786Z,12.70
2023-12-09T19:33:48.442Z,12.64
2023-12-09T19:36:15.227Z,12.64
2023-12-09T19:38:41.866Z,12.59
2023-12-09T19:41:08.465Z,12.54
2023-12-09T19:43:35.146Z,12.56
2023-12-09T19:46:02.207Z,12.52
2023-12-09T19:48:28.968Z,12.49
2023-12-09T19:50:55.827Z,12.43
2023-12-09T19:53:22.521Z,12.38
2023-12-09T19:55:49.173Z,12.29
2023-12-09T19:58:15.846Z,12.31
2023-12-09T20:00:45.847Z,12.31
2023-12-09T20:03:12.708Z,12.21
2023-12-09T20:05:39.375Z,12.28
2023-12-09T20:08:06.096Z,12.27
2023-12-09T20:10:32.818Z,12.26
2023-12-09T20:12:59.465Z,12.25
2023-12-09T20:15:26.123Z,12.31
2023-12-09T20:17:52.838Z,12.24
2023-12-09T20:20:19.550Z,12.32
2023-12-09T20:22:46.161Z,12.32
2023-12-09T20:25:12.843Z,12.32
2023-12-09T20:27:39.521Z,12.30
2023-12-09T20:30:06.801Z,12.30
2023-12-09T20:32:33.587Z,12.27
2023-12-09T20:35:00.482Z,12.27
2023-12-09T20:37:27.096Z,12.23
2023-12-09T20:39:53.741Z,12.20
2023-12-09T20:42:20.404Z,12.15
2023-12-09T20:44:47.071Z,12.14
2023-12-09T20:47:13.721Z,12.11
2023-12-09T20:49:40.437Z,12.07
2023-12-09T20:52:07.153Z,12.05
2023-12-09T20:54:33.789Z,12.01
2023-12-09T20:57:01.107Z,11.99
2023-12-09T20:59:27.945Z,11.96
2023-12-09T21:01:55.154Z,11.94
2023-12-09T21:04:22.335Z,11.91
2023-12-09T21:06:49.222Z,11.90
2023-12-09T21:09:16.195Z,11.89
2023-12-09T21:11:43.711Z,11.82
2023-12-09T21:14:12.116Z,11.86
2023-12-09T21:16:38.723Z,11.86
2023-12-09T21:19:05.471Z,11.85
2023-12-09T21:21:32.248Z,11.84
2023-12-09T21:23:58.912Z,11.84
2023-12-09T21:26:25.599Z,11.84
2023-12-09T21:28:52.247Z,11.85
2023-12-09T21:31:18.985Z,11.84
2023-12-09T21:33:46.161Z,11.82
2023-12-09T21:36:17.033Z,11.87
2023-12-09T21:38:44.688Z,11.88
2023-12-09T21:41:22.467Z,11.84
2023-12-09T21:43:50.167Z,11.87
2023-12-09T21:46:20.715Z,11.88
2023-12-09T21:48:47.792Z,11.82
2023-12-09T21:51:14.546Z,11.86
2023-12-09T21:53:41.198Z,11.77
2023-12-09T21:56:08.313Z,11.80
2023-12-09T21:58:34.946Z,11.72
2023-12-09T22:01:01.665Z,11.73
2023-12-09T22:03:28.436Z,11.76
2023-12-09T22:05:55.154Z,11.71
2023-12-09T22:08:21.756Z,11.72
2023-12-09T22:10:48.429Z,11.65
2023-12-09T22:13:15.101Z,11.70
2023-12-09T22:15:41.871Z,11.64
2023-12-09T22:18:08.698Z,11.64
2023-12-09T22:20:35.392Z,11.62
2023-12-09T22:23:02.010Z,11.58
2023-12-09T22:25:28.670Z,11.59
2023-12-09T22:27:55.404Z,11.58
2023-12-09T22:30:22.080Z,11.58
2023-12-09T22:32:48.940Z,11.56
2023-12-09T22:35:15.665Z,11.55
2023-12-09T22:37:42.379Z,11.64
2023-12-09T22:40:09.555Z,11.68
2023-12-09T22:42:37.196Z,11.65
2023-12-09T22:45:05.134Z,11.71
2023-12-09T22:47:32.295Z,11.75
2023-12-09T22:49:59.099Z,11.77
2023-12-09T22:52:26.136Z,11.80
2023-12-09T22:54:52.936Z,11.75
2023-12-09T22:57:20.004Z,11.86
2023-12-09T22:59:46.738Z,11.77
2023-12-09T23:02:13.410Z,11.84
2023-12-09T23:04:40.072Z,11.86
2023-12-09T23:07:06.911Z,11.86
2023-12-09T23:09:33.611Z,11.80
2023-12-09T23:12:00.263Z,11.85
2023-12-09T23:14:27.025Z,11.82
2023-12-09T23:16:53.771Z,11.81
2023-12-09T23:19:20.526Z,11.87
2023-12-09T23:21:47.330Z,11.92
2023-12-09T23:24:14.073Z,11.91
2023-12-09T23:26:40.806Z,11.92
2023-12-09T23:29:08.536Z,11.80
2023-12-09T23:31:41.044Z,11.87
2023-12-09T23:34:08.748Z,11.83
2023-12-09T23:36:35.583Z,11.87
2023-12-09T23:39:02.313Z,11.87
2023-12-09T23:41:28.925Z,11.87
2023-12-09T23:43:55.546Z,11.87
2023-12-09T23:46:22.265Z,11.84
2023-12-09T23:48:49.193Z,11.93
2023-12-09T23:51:16.590Z,11.98
2023-12-09T23:53:43.319Z,11.97
2023-12-09T23:56:10.201Z,11.99
2023-12-09T23:58:36.817Z,11.89
